sensor_id;sensor_type;location;lat;lon;timestamp;P1;durP1;ratioP1;P2;durP2;ratioP2
60610;SDS011;46439;51.164;13.572;2022-10-16T00:01:27;9.50;;;5.10;;
60610;SDS011;46439;51.164;13.572;2022-10-16T00:03:57;12.70;;;5.40;;
60610;SDS011;46439;51.164;13.572;2022-10-16T00:06:26;11.60;;;5.10;;
60610;SDS011;46439;51.164;13.572;2022-10-16T00:08:56;11.00;;;5.60;;
60610;SDS011;46439;51.164;13.572;2022-10-16T00:11:25;10.20;;;6.20;;
60610;SDS011;46439;51.164;13.572;2022-10-16T00:13:56;13.00;;;6.70;;
60610;SDS011;46439;51.164;13.572;2022-10-16T00:16:26;15.70;;;6.80;;
60610;SDS011;46439;51.164;13.572;2022-10-16T00:18:55;11.00;;;5.80;;
60610;SDS011;46439;51.164;13.572;2022-10-16T00:21:24;21.90;;;5.90;;
60610;SDS011;46439;51.164;13.572;2022-10-16T00:23:55;12.00;;;5.80;;
60610;SDS011;46439;51.164;13.572;2022-10-16T00:26:25;12.20;;;6.50;;
60610;SDS011;46439;51.164;13.572;2022-10-16T00:28:55;12.80;;;6.20;;
60610;SDS011;46439;51.164;13.572;2022-10-16T00:31:24;10.90;;;6.10;;
60610;SDS011;46439;51.164;13.572;2022-10-16T00:33:53;15.70;;;6.70;;
60610;SDS011;46439;51.164;13.572;2022-10-16T00:36:22;12.50;;;6.10;;
60610;SDS011;46439;51.164;13.572;2022-10-16T00:38:52;10.30;;;6.00;;
60610;SDS011;46439;51.164;13.572;2022-10-16T00:41:24;14.30;;;6.50;;
60610;SDS011;46439;51.164;13.572;2022-10-16T00:43:54;14.70;;;5.70;;
60610;SDS011;46439;51.164;13.572;2022-10-16T00:46:25;9.00;;;5.30;;
60610;SDS011;46439;51.164;13.572;2022-10-16T00:48:56;10.10;;;5.70;;
60610;SDS011;46439;51.164;13.572;2022-10-16T00:51:28;11.00;;;5.90;;
60610;SDS011;46439;51.164;13.572;2022-10-16T00:54:00;8.10;;;5.00;;
60610;SDS011;46439;51.164;13.572;2022-10-16T00:56:31;10.30;;;5.30;;
60610;SDS011;46439;51.164;13.572;2022-10-16T00:59:00;8.60;;;4.60;;
60610;SDS011;46439;51.164;13.572;2022-10-16T01:01:31;12.10;;;4.60;;
60610;SDS011;46439;51.164;13.572;2022-10-16T01:03:59;9.10;;;4.30;;
60610;SDS011;46439;51.164;13.572;2022-10-16T01:06:29;9.20;;;4.20;;
60610;SDS011;46439;51.164;13.572;2022-10-16T01:09:10;9.00;;;4.30;;
60610;SDS011;46439;51.164;13.572;2022-10-16T01:11:48;9.40;;;4.70;;
60610;SDS011;46439;51.164;13.572;2022-10-16T01:14:30;8.90;;;5.00;;
60610;SDS011;46439;51.164;13.572;2022-10-16T01:17:04;9.30;;;5.00;;
60610;SDS011;46439;51.164;13.572;2022-10-16T01:19:44;10.80;;;5.10;;
60610;SDS011;46439;51.164;13.572;2022-10-16T01:22:31;10.00;;;5.50;;
60610;SDS011;46439;51.164;13.572;2022-10-16T01:25:07;9.50;;;5.20;;
60610;SDS011;46439;51.164;13.572;2022-10-16T01:27:41;10.40;;;5.40;;
60610;SDS011;46439;51.164;13.572;2022-10-16T01:30:13;10.20;;;6.10;;
60610;SDS011;46439;51.164;13.572;2022-10-16T01:32:48;11.80;;;5.80;;
60610;SDS011;46439;51.164;13.572;2022-10-16T01:35:22;12.90;;;5.90;;
60610;SDS011;46439;51.164;13.572;2022-10-16T01:40:23;11.50;;;5.90;;
60610;SDS011;46439;51.164;13.572;2022-10-16T01:42:54;10.90;;;6.00;;
60610;SDS011;46439;51.164;13.572;2022-10-16T01:45:27;13.30;;;6.20;;
60610;SDS011;46439;51.164;13.572;2022-10-16T01:47:58;11.90;;;6.40;;
60610;SDS011;46439;51.164;13.572;2022-10-16T01:50:31;12.30;;;6.30;;
60610;SDS011;46439;51.164;13.572;2022-10-16T01:53:02;11.10;;;5.90;;
60610;SDS011;46439;51.164;13.572;2022-10-16T01:55:35;9.90;;;5.80;;
60610;SDS011;46439;51.164;13.572;2022-10-16T01:58:10;11.70;;;5.70;;
60610;SDS011;46439;51.164;13.572;2022-10-16T02:00:40;11.10;;;5.70;;
60610;SDS011;46439;51.164;13.572;2022-10-16T02:03:12;11.00;;;5.50;;
60610;SDS011;46439;51.164;13.572;2022-10-16T02:05:46;10.00;;;5.30;;
60610;SDS011;46439;51.164;13.572;2022-10-16T02:08:17;9.20;;;5.30;;
60610;SDS011;46439;51.164;13.572;2022-10-16T02:10:47;8.10;;;4.60;;
60610;SDS011;46439;51.164;13.572;2022-10-16T02:13:16;10.50;;;4.60;;
60610;SDS011;46439;51.164;13.572;2022-10-16T02:15:49;11.20;;;4.30;;
60610;SDS011;46439;51.164;13.572;2022-10-16T02:18:17;8.50;;;4.30;;
60610;SDS011;46439;51.164;13.572;2022-10-16T02:20:48;9.80;;;4.40;;
60610;SDS011;46439;51.164;13.572;2022-10-16T02:23:23;20.10;;;4.50;;
60610;SDS011;46439;51.164;13.572;2022-10-16T02:25:56;7.50;;;4.10;;
60610;SDS011;46439;51.164;13.572;2022-10-16T02:28:31;8.40;;;4.00;;
60610;SDS011;46439;51.164;13.572;2022-10-16T02:31:08;9.50;;;3.70;;
60610;SDS011;46439;51.164;13.572;2022-10-16T02:33:39;5.90;;;3.00;;
60610;SDS011;46439;51.164;13.572;2022-10-16T02:36:09;7.20;;;3.00;;
60610;SDS011;46439;51.164;13.572;2022-10-16T02:38:38;9.00;;;2.70;;
60610;SDS011;46439;51.164;13.572;2022-10-16T02:41:08;5.70;;;2.90;;
60610;SDS011;46439;51.164;13.572;2022-10-16T02:43:36;5.50;;;2.60;;
60610;SDS011;46439;51.164;13.572;2022-10-16T02:46:05;9.20;;;3.20;;
60610;SDS011;46439;51.164;13.572;2022-10-16T02:48:33;5.70;;;2.80;;
60610;SDS011;46439;51.164;13.572;2022-10-16T02:51:03;6.50;;;2.90;;
60610;SDS011;46439;51.164;13.572;2022-10-16T02:53:31;7.80;;;3.70;;
60610;SDS011;46439;51.164;13.572;2022-10-16T02:55:59;5.40;;;2.70;;
60610;SDS011;46439;51.164;13.572;2022-10-16T02:58:28;4.50;;;2.50;;
60610;SDS011;46439;51.164;13.572;2022-10-16T03:00:56;9.10;;;2.80;;
60610;SDS011;46439;51.164;13.572;2022-10-16T03:03:24;8.60;;;2.60;;
60610;SDS011;46439;51.164;13.572;2022-10-16T03:05:52;6.30;;;2.60;;
60610;SDS011;46439;51.164;13.572;2022-10-16T03:08:21;4.60;;;2.40;;
60610;SDS011;46439;51.164;13.572;2022-10-16T03:10:51;4.60;;;2.10;;
60610;SDS011;46439;51.164;13.572;2022-10-16T03:13:19;5.10;;;2.70;;
60610;SDS011;46439;51.164;13.572;2022-10-16T03:15:48;4.60;;;2.80;;
60610;SDS011;46439;51.164;13.572;2022-10-16T03:18:16;8.40;;;2.90;;
60610;SDS011;46439;51.164;13.572;2022-10-16T03:20:44;9.50;;;2.80;;
60610;SDS011;46439;51.164;13.572;2022-10-16T03:23:13;5.20;;;2.90;;
60610;SDS011;46439;51.164;13.572;2022-10-16T03:25:41;5.80;;;2.90;;
60610;SDS011;46439;51.164;13.572;2022-10-16T03:28:09;7.70;;;2.70;;
60610;SDS011;46439;51.164;13.572;2022-10-16T03:30:38;6.30;;;2.80;;
60610;SDS011;46439;51.164;13.572;2022-10-16T03:33:06;13.90;;;3.30;;
60610;SDS011;46439;51.164;13.572;2022-10-16T03:35:34;9.10;;;3.80;;
60610;SDS011;46439;51.164;13.572;2022-10-16T03:38:03;7.50;;;4.20;;
60610;SDS011;46439;51.164;13.572;2022-10-16T03:40:31;9.30;;;4.40;;
60610;SDS011;46439;51.164;13.572;2022-10-16T03:42:59;8.80;;;4.30;;
60610;SDS011;46439;51.164;13.572;2022-10-16T03:45:28;9.60;;;4.80;;
60610;SDS011;46439;51.164;13.572;2022-10-16T03:47:56;8.80;;;4.80;;
60610;SDS011;46439;51.164;13.572;2022-10-16T03:50:24;13.50;;;5.30;;
60610;SDS011;46439;51.164;13.572;2022-10-16T03:52:52;8.50;;;4.60;;
60610;SDS011;46439;51.164;13.572;2022-10-16T03:55:21;10.00;;;4.90;;
60610;SDS011;46439;51.164;13.572;2022-10-16T03:57:49;12.40;;;4.70;;
60610;SDS011;46439;51.164;13.572;2022-10-16T04:00:17;11.10;;;4.60;;
60610;SDS011;46439;51.164;13.572;2022-10-16T04:02:46;11.60;;;4.60;;
60610;SDS011;46439;51.164;13.572;2022-10-16T04:05:14;10.10;;;4.90;;
60610;SDS011;46439;51.164;13.572;2022-10-16T04:07:42;8.30;;;4.90;;
60610;SDS011;46439;51.164;13.572;2022-10-16T04:10:11;9.90;;;5.30;;
60610;SDS011;46439;51.164;13.572;2022-10-16T04:12:39;11.60;;;5.20;;
60610;SDS011;46439;51.164;13.572;2022-10-16T04:15:08;10.60;;;5.80;;
60610;SDS011;46439;51.164;13.572;2022-10-16T04:17:37;9.70;;;5.40;;
60610;SDS011;46439;51.164;13.572;2022-10-16T04:20:06;12.60;;;6.20;;
60610;SDS011;46439;51.164;13.572;2022-10-16T04:22:34;12.10;;;6.30;;
60610;SDS011;46439;51.164;13.572;2022-10-16T04:25:03;13.10;;;6.20;;
60610;SDS011;46439;51.164;13.572;2022-10-16T04:27:32;12.80;;;6.50;;
60610;SDS011;46439;51.164;13.572;2022-10-16T04:30:00;14.50;;;7.10;;
60610;SDS011;46439;51.164;13.572;2022-10-16T04:32:29;21.30;;;7.80;;
60610;SDS011;46439;51.164;13.572;2022-10-16T04:34:58;14.60;;;7.50;;
60610;SDS011;46439;51.164;13.572;2022-10-16T04:37:26;13.20;;;7.40;;
60610;SDS011;46439;51.164;13.572;2022-10-16T04:39:55;17.60;;;7.40;;
60610;SDS011;46439;51.164;13.572;2022-10-16T04:42:23;13.00;;;8.20;;
60610;SDS011;46439;51.164;13.572;2022-10-16T04:44:51;12.40;;;7.30;;
60610;SDS011;46439;51.164;13.572;2022-10-16T04:47:19;14.30;;;7.10;;
60610;SDS011;46439;51.164;13.572;2022-10-16T04:49:48;16.40;;;7.20;;
60610;SDS011;46439;51.164;13.572;2022-10-16T04:52:33;15.80;;;7.60;;
60610;SDS011;46439;51.164;13.572;2022-10-16T04:55:01;10.20;;;6.70;;
60610;SDS011;46439;51.164;13.572;2022-10-16T04:57:30;13.80;;;6.50;;
60610;SDS011;46439;51.164;13.572;2022-10-16T04:59:59;12.60;;;6.80;;
60610;SDS011;46439;51.164;13.572;2022-10-16T05:02:29;12.40;;;6.70;;
60610;SDS011;46439;51.164;13.572;2022-10-16T05:04:57;12.90;;;7.00;;
60610;SDS011;46439;51.164;13.572;2022-10-16T05:07:26;13.00;;;7.40;;
60610;SDS011;46439;51.164;13.572;2022-10-16T05:09:54;13.80;;;6.10;;
60610;SDS011;46439;51.164;13.572;2022-10-16T05:12:22;12.10;;;6.60;;
60610;SDS011;46439;51.164;13.572;2022-10-16T05:14:50;10.60;;;6.10;;
60610;SDS011;46439;51.164;13.572;2022-10-16T05:17:19;13.30;;;7.20;;
60610;SDS011;46439;51.164;13.572;2022-10-16T05:19:47;13.40;;;6.90;;
60610;SDS011;46439;51.164;13.572;2022-10-16T05:22:15;17.30;;;7.60;;
60610;SDS011;46439;51.164;13.572;2022-10-16T05:24:44;14.20;;;7.30;;
60610;SDS011;46439;51.164;13.572;2022-10-16T05:27:12;15.90;;;7.30;;
60610;SDS011;46439;51.164;13.572;2022-10-16T05:29:45;15.60;;;7.30;;
60610;SDS011;46439;51.164;13.572;2022-10-16T05:32:15;15.50;;;6.80;;
60610;SDS011;46439;51.164;13.572;2022-10-16T05:34:44;10.70;;;6.30;;
60610;SDS011;46439;51.164;13.572;2022-10-16T05:37:13;12.40;;;6.60;;
60610;SDS011;46439;51.164;13.572;2022-10-16T05:39:41;12.40;;;6.00;;
60610;SDS011;46439;51.164;13.572;2022-10-16T05:42:10;12.70;;;6.30;;
60610;SDS011;46439;51.164;13.572;2022-10-16T05:44:38;11.80;;;6.50;;
60610;SDS011;46439;51.164;13.572;2022-10-16T05:47:06;11.10;;;5.70;;
60610;SDS011;46439;51.164;13.572;2022-10-16T05:49:35;12.60;;;6.30;;
60610;SDS011;46439;51.164;13.572;2022-10-16T05:52:03;12.30;;;5.80;;
60610;SDS011;46439;51.164;13.572;2022-10-16T05:54:32;11.10;;;6.10;;
60610;SDS011;46439;51.164;13.572;2022-10-16T05:57:00;12.20;;;5.90;;
60610;SDS011;46439;51.164;13.572;2022-10-16T05:59:28;9.70;;;5.80;;
60610;SDS011;46439;51.164;13.572;2022-10-16T06:01:57;11.40;;;5.80;;
60610;SDS011;46439;51.164;13.572;2022-10-16T06:04:25;10.90;;;5.50;;
60610;SDS011;46439;51.164;13.572;2022-10-16T06:06:53;9.80;;;5.50;;
60610;SDS011;46439;51.164;13.572;2022-10-16T06:09:26;12.80;;;5.80;;
60610;SDS011;46439;51.164;13.572;2022-10-16T06:11:55;13.40;;;6.00;;
60610;SDS011;46439;51.164;13.572;2022-10-16T06:14:23;15.60;;;6.30;;
60610;SDS011;46439;51.164;13.572;2022-10-16T06:16:52;13.20;;;7.20;;
60610;SDS011;46439;51.164;13.572;2022-10-16T06:19:20;13.70;;;7.10;;
60610;SDS011;46439;51.164;13.572;2022-10-16T06:21:49;12.80;;;6.60;;
60610;SDS011;46439;51.164;13.572;2022-10-16T06:24:17;14.00;;;6.70;;
60610;SDS011;46439;51.164;13.572;2022-10-16T06:26:45;14.40;;;6.90;;
60610;SDS011;46439;51.164;13.572;2022-10-16T06:29:14;15.10;;;6.90;;
60610;SDS011;46439;51.164;13.572;2022-10-16T06:31:42;14.50;;;6.70;;
60610;SDS011;46439;51.164;13.572;2022-10-16T06:34:10;11.90;;;6.40;;
60610;SDS011;46439;51.164;13.572;2022-10-16T06:36:39;11.10;;;6.70;;
60610;SDS011;46439;51.164;13.572;2022-10-16T06:39:08;13.40;;;6.80;;
60610;SDS011;46439;51.164;13.572;2022-10-16T06:41:36;11.70;;;6.70;;
60610;SDS011;46439;51.164;13.572;2022-10-16T06:44:06;16.60;;;7.40;;
60610;SDS011;46439;51.164;13.572;2022-10-16T06:46:34;17.60;;;7.40;;
60610;SDS011;46439;51.164;13.572;2022-10-16T06:49:03;11.60;;;6.30;;
60610;SDS011;46439;51.164;13.572;2022-10-16T06:51:31;9.80;;;4.30;;
60610;SDS011;46439;51.164;13.572;2022-10-16T06:54:02;10.10;;;4.70;;
60610;SDS011;46439;51.164;13.572;2022-10-16T06:56:30;10.30;;;4.60;;
60610;SDS011;46439;51.164;13.572;2022-10-16T06:59:00;8.60;;;4.80;;
60610;SDS011;46439;51.164;13.572;2022-10-16T07:01:29;8.90;;;4.20;;
60610;SDS011;46439;51.164;13.572;2022-10-16T07:03:58;9.70;;;4.10;;
60610;SDS011;46439;51.164;13.572;2022-10-16T07:06:26;7.70;;;3.90;;
60610;SDS011;46439;51.164;13.572;2022-10-16T07:08:57;8.00;;;4.00;;
60610;SDS011;46439;51.164;13.572;2022-10-16T07:11:27;8.80;;;4.40;;
60610;SDS011;46439;51.164;13.572;2022-10-16T07:13:55;8.10;;;4.50;;
60610;SDS011;46439;51.164;13.572;2022-10-16T07:16:24;10.30;;;4.90;;
60610;SDS011;46439;51.164;13.572;2022-10-16T07:18:54;10.10;;;5.20;;
60610;SDS011;46439;51.164;13.572;2022-10-16T07:21:25;16.60;;;5.10;;
60610;SDS011;46439;51.164;13.572;2022-10-16T07:23:55;10.10;;;5.70;;
60610;SDS011;46439;51.164;13.572;2022-10-16T07:26:26;10.80;;;5.60;;
60610;SDS011;46439;51.164;13.572;2022-10-16T07:28:56;11.90;;;5.90;;
60610;SDS011;46439;51.164;13.572;2022-10-16T07:31:25;13.60;;;6.50;;
60610;SDS011;46439;51.164;13.572;2022-10-16T07:33:54;11.40;;;6.30;;
60610;SDS011;46439;51.164;13.572;2022-10-16T07:36:24;13.70;;;6.20;;
60610;SDS011;46439;51.164;13.572;2022-10-16T07:38:52;11.60;;;6.30;;
60610;SDS011;46439;51.164;13.572;2022-10-16T07:41:21;10.80;;;6.20;;
60610;SDS011;46439;51.164;13.572;2022-10-16T07:43:50;12.00;;;6.20;;
60610;SDS011;46439;51.164;13.572;2022-10-16T07:46:20;14.10;;;6.10;;
60610;SDS011;46439;51.164;13.572;2022-10-16T07:48:49;15.70;;;6.50;;
60610;SDS011;46439;51.164;13.572;2022-10-16T07:51:18;10.00;;;5.30;;
60610;SDS011;46439;51.164;13.572;2022-10-16T07:53:48;17.00;;;7.30;;
60610;SDS011;46439;51.164;13.572;2022-10-16T07:56:16;13.20;;;7.00;;
60610;SDS011;46439;51.164;13.572;2022-10-16T07:58:46;14.20;;;7.20;;
60610;SDS011;46439;51.164;13.572;2022-10-16T08:01:16;12.30;;;6.90;;
60610;SDS011;46439;51.164;13.572;2022-10-16T08:03:46;11.10;;;5.70;;
60610;SDS011;46439;51.164;13.572;2022-10-16T08:06:16;10.50;;;5.10;;
60610;SDS011;46439;51.164;13.572;2022-10-16T08:08:46;9.40;;;5.30;;
60610;SDS011;46439;51.164;13.572;2022-10-16T08:11:14;14.10;;;5.40;;
60610;SDS011;46439;51.164;13.572;2022-10-16T08:13:42;8.40;;;4.50;;
60610;SDS011;46439;51.164;13.572;2022-10-16T08:16:11;10.60;;;4.90;;
60610;SDS011;46439;51.164;13.572;2022-10-16T08:18:40;7.30;;;4.60;;
60610;SDS011;46439;51.164;13.572;2022-10-16T08:21:11;11.40;;;4.80;;
60610;SDS011;46439;51.164;13.572;2022-10-16T08:23:41;8.40;;;4.90;;
60610;SDS011;46439;51.164;13.572;2022-10-16T08:26:10;8.60;;;4.20;;
60610;SDS011;46439;51.164;13.572;2022-10-16T08:28:39;7.80;;;3.90;;
60610;SDS011;46439;51.164;13.572;2022-10-16T08:31:09;8.70;;;4.00;;
60610;SDS011;46439;51.164;13.572;2022-10-16T08:33:40;6.40;;;3.70;;
60610;SDS011;46439;51.164;13.572;2022-10-16T08:36:11;8.20;;;3.80;;
60610;SDS011;46439;51.164;13.572;2022-10-16T08:38:40;7.50;;;3.80;;
60610;SDS011;46439;51.164;13.572;2022-10-16T08:41:17;7.60;;;3.20;;
60610;SDS011;46439;51.164;13.572;2022-10-16T08:44:10;6.90;;;3.00;;
60610;SDS011;46439;51.164;13.572;2022-10-16T08:46:53;6.20;;;2.90;;
60610;SDS011;46439;51.164;13.572;2022-10-16T08:49:27;5.80;;;3.10;;
60610;SDS011;46439;51.164;13.572;2022-10-16T08:51:56;14.00;;;6.20;;
60610;SDS011;46439;51.164;13.572;2022-10-16T08:54:28;7.70;;;4.20;;
60610;SDS011;46439;51.164;13.572;2022-10-16T08:57:06;9.70;;;5.20;;
60610;SDS011;46439;51.164;13.572;2022-10-16T08:59:37;10.30;;;5.90;;
60610;SDS011;46439;51.164;13.572;2022-10-16T09:02:11;11.40;;;5.80;;
60610;SDS011;46439;51.164;13.572;2022-10-16T09:04:55;14.00;;;5.90;;
60610;SDS011;46439;51.164;13.572;2022-10-16T09:07:31;10.30;;;5.80;;
60610;SDS011;46439;51.164;13.572;2022-10-16T09:10:12;10.60;;;6.30;;
60610;SDS011;46439;51.164;13.572;2022-10-16T09:12:53;10.30;;;4.70;;
60610;SDS011;46439;51.164;13.572;2022-10-16T09:15:31;6.60;;;3.60;;
60610;SDS011;46439;51.164;13.572;2022-10-16T09:18:04;9.20;;;3.20;;
60610;SDS011;46439;51.164;13.572;2022-10-16T09:20:45;10.80;;;3.20;;
60610;SDS011;46439;51.164;13.572;2022-10-16T09:23:19;7.10;;;3.60;;
60610;SDS011;46439;51.164;13.572;2022-10-16T09:25:51;4.20;;;2.20;;
60610;SDS011;46439;51.164;13.572;2022-10-16T09:28:22;4.20;;;2.90;;
60610;SDS011;46439;51.164;13.572;2022-10-16T09:30:50;7.10;;;3.20;;
60610;SDS011;46439;51.164;13.572;2022-10-16T09:33:20;7.40;;;4.20;;
60610;SDS011;46439;51.164;13.572;2022-10-16T09:35:53;2.70;;;2.00;;
60610;SDS011;46439;51.164;13.572;2022-10-16T09:38:26;4.10;;;1.70;;
60610;SDS011;46439;51.164;13.572;2022-10-16T09:40:56;5.20;;;1.70;;
60610;SDS011;46439;51.164;13.572;2022-10-16T09:43:28;6.90;;;1.80;;
60610;SDS011;46439;51.164;13.572;2022-10-16T09:46:03;3.50;;;2.20;;
60610;SDS011;46439;51.164;13.572;2022-10-16T09:48:35;6.50;;;2.50;;
60610;SDS011;46439;51.164;13.572;2022-10-16T09:51:13;3.40;;;1.50;;
60610;SDS011;46439;51.164;13.572;2022-10-16T09:53:46;4.30;;;1.30;;
60610;SDS011;46439;51.164;13.572;2022-10-16T09:56:22;2.40;;;1.60;;
60610;SDS011;46439;51.164;13.572;2022-10-16T09:58:53;10.20;;;1.80;;
60610;SDS011;46439;51.164;13.572;2022-10-16T10:01:22;4.60;;;1.90;;
60610;SDS011;46439;51.164;13.572;2022-10-16T10:03:56;4.30;;;1.70;;
60610;SDS011;46439;51.164;13.572;2022-10-16T10:06:28;1.70;;;1.60;;
60610;SDS011;46439;51.164;13.572;2022-10-16T10:08:58;1.60;;;1.50;;
60610;SDS011;46439;51.164;13.572;2022-10-16T10:11:42;5.90;;;1.70;;
60610;SDS011;46439;51.164;13.572;2022-10-16T10:14:17;1.70;;;1.60;;
60610;SDS011;46439;51.164;13.572;2022-10-16T10:16:48;4.30;;;1.80;;
60610;SDS011;46439;51.164;13.572;2022-10-16T10:19:18;1.60;;;1.50;;
60610;SDS011;46439;51.164;13.572;2022-10-16T10:21:48;4.20;;;1.70;;
60610;SDS011;46439;51.164;13.572;2022-10-16T10:24:18;3.00;;;1.70;;
60610;SDS011;46439;51.164;13.572;2022-10-16T10:26:52;5.20;;;1.80;;
60610;SDS011;46439;51.164;13.572;2022-10-16T10:29:30;1.50;;;1.40;;
60610;SDS011;46439;51.164;13.572;2022-10-16T10:32:11;5.10;;;1.70;;
60610;SDS011;46439;51.164;13.572;2022-10-16T10:34:54;2.40;;;1.50;;
60610;SDS011;46439;51.164;13.572;2022-10-16T10:37:43;1.70;;;1.50;;
60610;SDS011;46439;51.164;13.572;2022-10-16T10:40:27;3.30;;;1.80;;
60610;SDS011;46439;51.164;13.572;2022-10-16T10:43:07;4.60;;;2.10;;
60610;SDS011;46439;51.164;13.572;2022-10-16T10:45:46;10.00;;;2.30;;
60610;SDS011;46439;51.164;13.572;2022-10-16T10:48:21;3.30;;;2.00;;
60610;SDS011;46439;51.164;13.572;2022-10-16T10:51:00;5.10;;;1.60;;
60610;SDS011;46439;51.164;13.572;2022-10-16T10:53:36;3.50;;;1.70;;
60610;SDS011;46439;51.164;13.572;2022-10-16T10:56:15;7.00;;;1.80;;
60610;SDS011;46439;51.164;13.572;2022-10-16T10:59:16;6.20;;;2.00;;
60610;SDS011;46439;51.164;13.572;2022-10-16T11:02:13;3.30;;;1.80;;
60610;SDS011;46439;51.164;13.572;2022-10-16T11:04:54;2.00;;;1.50;;
60610;SDS011;46439;51.164;13.572;2022-10-16T11:07:45;6.00;;;1.80;;
60610;SDS011;46439;51.164;13.572;2022-10-16T11:10:18;6.60;;;1.60;;
60610;SDS011;46439;51.164;13.572;2022-10-16T11:12:51;1.90;;;1.50;;
60610;SDS011;46439;51.164;13.572;2022-10-16T11:15:27;3.30;;;1.50;;
60610;SDS011;46439;51.164;13.572;2022-10-16T11:18:00;4.00;;;1.50;;
60610;SDS011;46439;51.164;13.572;2022-10-16T11:20:37;2.80;;;1.60;;
60610;SDS011;46439;51.164;13.572;2022-10-16T11:23:10;2.20;;;1.50;;
60610;SDS011;46439;51.164;13.572;2022-10-16T11:25:44;3.40;;;1.60;;
60610;SDS011;46439;51.164;13.572;2022-10-16T11:28:15;2.30;;;1.70;;
60610;SDS011;46439;51.164;13.572;2022-10-16T11:30:47;4.20;;;1.50;;
60610;SDS011;46439;51.164;13.572;2022-10-16T11:33:22;5.90;;;1.80;;
60610;SDS011;46439;51.164;13.572;2022-10-16T11:35:59;3.80;;;1.70;;
60610;SDS011;46439;51.164;13.572;2022-10-16T11:38:32;5.70;;;2.20;;
60610;SDS011;46439;51.164;13.572;2022-10-16T11:41:10;6.00;;;3.10;;
60610;SDS011;46439;51.164;13.572;2022-10-16T11:43:48;5.10;;;2.40;;
60610;SDS011;46439;51.164;13.572;2022-10-16T11:46:25;5.80;;;2.00;;
60610;SDS011;46439;51.164;13.572;2022-10-16T11:48:56;3.30;;;2.00;;
60610;SDS011;46439;51.164;13.572;2022-10-16T11:51:35;4.80;;;2.20;;
60610;SDS011;46439;51.164;13.572;2022-10-16T11:54:08;5.90;;;3.10;;
60610;SDS011;46439;51.164;13.572;2022-10-16T11:56:48;5.00;;;2.60;;
60610;SDS011;46439;51.164;13.572;2022-10-16T11:59:21;7.00;;;3.00;;
60610;SDS011;46439;51.164;13.572;2022-10-16T12:01:57;8.60;;;2.80;;
60610;SDS011;46439;51.164;13.572;2022-10-16T12:04:39;4.20;;;2.70;;
60610;SDS011;46439;51.164;13.572;2022-10-16T12:07:13;4.30;;;2.10;;
60610;SDS011;46439;51.164;13.572;2022-10-16T12:09:46;7.40;;;2.50;;
60610;SDS011;46439;51.164;13.572;2022-10-16T12:12:28;8.50;;;4.70;;
60610;SDS011;46439;51.164;13.572;2022-10-16T12:15:17;5.80;;;2.30;;
60610;SDS011;46439;51.164;13.572;2022-10-16T12:17:48;6.20;;;2.20;;
60610;SDS011;46439;51.164;13.572;2022-10-16T12:23:19;8.50;;;2.20;;
60610;SDS011;46439;51.164;13.572;2022-10-16T12:25:54;3.50;;;1.90;;
60610;SDS011;46439;51.164;13.572;2022-10-16T12:28:27;4.40;;;2.10;;
60610;SDS011;46439;51.164;13.572;2022-10-16T12:30:58;5.00;;;2.20;;
60610;SDS011;46439;51.164;13.572;2022-10-16T12:33:29;2.40;;;1.90;;
60610;SDS011;46439;51.164;13.572;2022-10-16T12:35:59;5.60;;;2.10;;
60610;SDS011;46439;51.164;13.572;2022-10-16T12:38:31;4.30;;;2.00;;
60610;SDS011;46439;51.164;13.572;2022-10-16T12:41:05;3.30;;;2.00;;
60610;SDS011;46439;51.164;13.572;2022-10-16T12:43:39;4.40;;;2.10;;
60610;SDS011;46439;51.164;13.572;2022-10-16T12:46:22;3.80;;;2.00;;
60610;SDS011;46439;51.164;13.572;2022-10-16T12:49:06;4.50;;;1.70;;
60610;SDS011;46439;51.164;13.572;2022-10-16T12:51:48;4.80;;;2.10;;
60610;SDS011;46439;51.164;13.572;2022-10-16T12:54:17;2.70;;;1.70;;
60610;SDS011;46439;51.164;13.572;2022-10-16T12:56:51;3.60;;;1.70;;
60610;SDS011;46439;51.164;13.572;2022-10-16T12:59:33;6.10;;;2.00;;
60610;SDS011;46439;51.164;13.572;2022-10-16T13:02:14;2.70;;;1.70;;
60610;SDS011;46439;51.164;13.572;2022-10-16T13:05:05;2.60;;;1.70;;
60610;SDS011;46439;51.164;13.572;2022-10-16T13:07:48;3.70;;;2.00;;
60610;SDS011;46439;51.164;13.572;2022-10-16T13:10:25;2.50;;;1.50;;
60610;SDS011;46439;51.164;13.572;2022-10-16T13:13:09;3.40;;;1.80;;
60610;SDS011;46439;51.164;13.572;2022-10-16T13:15:52;3.70;;;1.90;;
60610;SDS011;46439;51.164;13.572;2022-10-16T13:18:34;2.90;;;2.00;;
60610;SDS011;46439;51.164;13.572;2022-10-16T13:21:14;4.60;;;1.90;;
60610;SDS011;46439;51.164;13.572;2022-10-16T13:23:59;4.60;;;2.00;;
60610;SDS011;46439;51.164;13.572;2022-10-16T13:26:38;32.50;;;17.40;;
60610;SDS011;46439;51.164;13.572;2022-10-16T13:29:13;7.50;;;4.30;;
60610;SDS011;46439;51.164;13.572;2022-10-16T13:31:42;3.20;;;2.00;;
60610;SDS011;46439;51.164;13.572;2022-10-16T13:34:12;5.70;;;2.70;;
60610;SDS011;46439;51.164;13.572;2022-10-16T13:36:45;12.10;;;6.70;;
60610;SDS011;46439;51.164;13.572;2022-10-16T13:39:21;3.00;;;2.50;;
60610;SDS011;46439;51.164;13.572;2022-10-16T13:42:05;3.90;;;2.50;;
60610;SDS011;46439;51.164;13.572;2022-10-16T13:44:41;6.70;;;2.60;;
60610;SDS011;46439;51.164;13.572;2022-10-16T13:49:43;6.00;;;2.40;;
60610;SDS011;46439;51.164;13.572;2022-10-16T13:52:19;5.20;;;2.10;;
60610;SDS011;46439;51.164;13.572;2022-10-16T13:54:47;3.70;;;2.20;;
60610;SDS011;46439;51.164;13.572;2022-10-16T13:57:16;4.20;;;2.30;;
60610;SDS011;46439;51.164;13.572;2022-10-16T13:59:48;7.90;;;2.30;;
60610;SDS011;46439;51.164;13.572;2022-10-16T14:02:19;3.80;;;2.10;;
60610;SDS011;46439;51.164;13.572;2022-10-16T14:04:53;4.30;;;2.10;;
60610;SDS011;46439;51.164;13.572;2022-10-16T14:07:24;6.60;;;2.30;;
60610;SDS011;46439;51.164;13.572;2022-10-16T14:09:54;3.10;;;2.20;;
60610;SDS011;46439;51.164;13.572;2022-10-16T14:12:27;5.90;;;2.40;;
60610;SDS011;46439;51.164;13.572;2022-10-16T14:14:55;3.60;;;2.00;;
60610;SDS011;46439;51.164;13.572;2022-10-16T14:17:26;5.60;;;2.50;;
60610;SDS011;46439;51.164;13.572;2022-10-16T14:19:57;7.00;;;2.20;;
60610;SDS011;46439;51.164;13.572;2022-10-16T14:22:29;3.90;;;1.80;;
60610;SDS011;46439;51.164;13.572;2022-10-16T14:24:59;3.70;;;1.80;;
60610;SDS011;46439;51.164;13.572;2022-10-16T14:27:30;4.70;;;2.30;;
60610;SDS011;46439;51.164;13.572;2022-10-16T14:30:09;7.10;;;2.40;;
60610;SDS011;46439;51.164;13.572;2022-10-16T14:32:52;3.20;;;2.20;;
60610;SDS011;46439;51.164;13.572;2022-10-16T14:35:29;4.20;;;1.90;;
60610;SDS011;46439;51.164;13.572;2022-10-16T14:37:59;3.20;;;2.00;;
60610;SDS011;46439;51.164;13.572;2022-10-16T14:40:30;3.20;;;2.20;;
60610;SDS011;46439;51.164;13.572;2022-10-16T14:43:00;2.40;;;1.90;;
60610;SDS011;46439;51.164;13.572;2022-10-16T14:45:30;4.00;;;1.80;;
60610;SDS011;46439;51.164;13.572;2022-10-16T14:48:00;4.30;;;1.80;;
60610;SDS011;46439;51.164;13.572;2022-10-16T14:50:31;3.90;;;1.70;;
60610;SDS011;46439;51.164;13.572;2022-10-16T14:53:01;3.30;;;1.60;;
60610;SDS011;46439;51.164;13.572;2022-10-16T14:55:33;4.20;;;1.70;;
60610;SDS011;46439;51.164;13.572;2022-10-16T14:58:04;6.20;;;2.00;;
60610;SDS011;46439;51.164;13.572;2022-10-16T15:00:36;2.60;;;1.80;;
60610;SDS011;46439;51.164;13.572;2022-10-16T15:03:04;3.10;;;1.60;;
60610;SDS011;46439;51.164;13.572;2022-10-16T15:05:33;2.00;;;1.60;;